createdAt,value
2019-05-10T00:00:47.454Z,92.30
2019-05-10T00:03:35.140Z,92.10
2019-05-10T00:06:23.381Z,92.00
2019-05-10T00:08:52.768Z,92.10
2019-05-10T00:11:31.169Z,92.00
2019-05-10T00:14:21.618Z,91.90
2019-05-10T00:16:52.767Z,91.90
2019-05-10T00:19:22.894Z,91.60
2019-05-10T00:21:53.124Z,91.50
2019-05-10T00:24:24.323Z,91.40
2019-05-10T00:26:54.263Z,91.20
2019-05-10T00:29:24.472Z,91.00
2019-05-10T00:31:54.622Z,91.10
2019-05-10T00:34:24.512Z,91.10
2019-05-10T00:36:54.568Z,90.90
2019-05-10T00:39:24.402Z,90.60
2019-05-10T00:41:54.455Z,90.70
2019-05-10T00:44:24.278Z,90.70
2019-05-10T00:46:54.435Z,90.60
2019-05-10T00:49:24.536Z,90.60
2019-05-10T00:51:54.682Z,90.40
2019-05-10T00:54:24.739Z,90.50
2019-05-10T00:56:54.816Z,90.60
2019-05-10T00:59:24.885Z,90.60
2019-05-10T01:01:54.711Z,90.60
2019-05-10T01:04:25.589Z,90.60
2019-05-10T01:06:56.522Z,90.60
2019-05-10T01:09:26.829Z,90.30
2019-05-10T01:11:56.906Z,90.20
2019-05-10T01:14:26.994Z,90.10
2019-05-10T01:16:56.801Z,90.10
2019-05-10T01:19:26.620Z,90.30
2019-05-10T01:21:56.415Z,90.30
2019-05-10T01:24:26.234Z,90.20
2019-05-10T01:26:56.317Z,90.20
2019-05-10T01:29:26.137Z,90.20
2019-05-10T01:31:56.384Z,90.20
2019-05-10T01:34:26.435Z,90.10
2019-05-10T01:36:56.272Z,90.10
2019-05-10T01:39:26.336Z,90.00
2019-05-10T01:41:56.168Z,90.20
2019-05-10T01:44:25.980Z,90.20
2019-05-10T01:46:56.129Z,90.10
2019-05-10T01:49:25.950Z,90.20
2019-05-10T01:51:56.088Z,90.30
2019-05-10T01:54:25.966Z,90.20
2019-05-10T01:56:56.095Z,90.00
2019-05-10T01:59:25.902Z,90.40
2019-05-10T02:01:55.726Z,90.10
2019-05-10T02:04:25.771Z,90.10
2019-05-10T02:06:55.830Z,90.00
2019-05-10T02:09:25.689Z,90.00
2019-05-10T02:11:55.763Z,90.00
2019-05-10T02:14:25.859Z,90.10
2019-05-10T02:16:55.728Z,90.10
2019-05-10T02:19:25.556Z,90.20
2019-05-10T02:21:55.606Z,90.30
2019-05-10T02:24:25.433Z,90.50
2019-05-10T02:26:55.247Z,90.50
2019-05-10T02:29:25.042Z,90.50
2019-05-10T02:31:55.131Z,90.50
2019-05-10T02:34:24.952Z,90.70
2019-05-10T02:36:54.779Z,90.70
2019-05-10T02:39:24.855Z,90.70
2019-05-10T02:41:54.675Z,90.80
2019-05-10T02:44:24.480Z,91.00
2019-05-10T02:46:54.305Z,91.20
2019-05-10T02:49:24.147Z,91.40
2019-05-10T02:51:54.212Z,92.00
2019-05-10T02:54:24.405Z,92.10
2019-05-10T02:56:55.656Z,92.50
2019-05-10T02:59:27.084Z,92.50
2019-05-10T03:01:57.796Z,92.70
2019-05-10T03:04:28.408Z,92.80
2019-05-10T03:07:04.530Z,93.00
2019-05-10T03:09:35.374Z,93.10
2019-05-10T03:12:26.398Z,93.40
2019-05-10T03:14:58.062Z,93.50
2019-05-10T03:17:28.722Z,93.80
2019-05-10T03:20:00.250Z,94.30
2019-05-10T03:22:33.169Z,94.50
2019-05-10T03:25:03.062Z,94.60
2019-05-10T03:27:33.540Z,95.00
2019-05-10T03:30:03.448Z,94.70
2019-05-10T03:32:34.802Z,95.10
2019-05-10T03:35:06.891Z,95.10
2019-05-10T03:37:37.239Z,95.20
2019-05-10T03:40:08.852Z,95.40
2019-05-10T03:42:39.068Z,95.50
2019-05-10T03:45:09.865Z,95.40
2019-05-10T03:47:41.172Z,95.50
2019-05-10T03:50:11.495Z,95.40
2019-05-10T03:52:41.387Z,95.40
2019-05-10T03:55:11.735Z,95.40
2019-05-10T03:57:41.555Z,95.40
2019-05-10T04:00:13.012Z,95.30
2019-05-10T04:02:42.851Z,95.40
2019-05-10T04:05:12.807Z,95.30
2019-05-10T04:07:43.029Z,95.50
2019-05-10T04:10:13.660Z,95.30
2019-05-10T04:12:43.744Z,95.30
2019-05-10T04:15:13.702Z,95.30
2019-05-10T04:17:43.541Z,95.30
2019-05-10T04:20:13.543Z,95.30
2019-05-10T04:22:43.351Z,95.30
2019-05-10T04:25:13.331Z,95.20
2019-05-10T04:27:43.593Z,95.20
2019-05-10T04:30:13.772Z,95.20
2019-05-10T04:32:43.625Z,95.20
2019-05-10T04:35:13.679Z,95.20
2019-05-10T04:37:43.501Z,95.10
2019-05-10T04:40:13.459Z,95.10
2019-05-10T04:42:43.296Z,95.00
2019-05-10T04:45:14.706Z,95.00
2019-05-10T04:47:44.548Z,94.90
2019-05-10T04:50:14.525Z,94.80
2019-05-10T04:52:44.680Z,94.80
2019-05-10T04:55:14.787Z,94.70
2019-05-10T04:57:50.579Z,94.70
2019-05-10T05:00:16.874Z,94.70
2019-05-10T05:02:46.995Z,94.70
2019-05-10T05:05:17.316Z,94.60
2019-05-10T05:07:47.177Z,94.60
2019-05-10T05:10:17.324Z,94.70
2019-05-10T05:12:47.155Z,94.60
2019-05-10T05:15:17.379Z,94.50
2019-05-10T05:17:47.273Z,94.50
2019-05-10T05:20:17.520Z,94.50
2019-05-10T05:22:47.369Z,94.40
2019-05-10T05:25:17.480Z,94.40
2019-05-10T05:27:47.559Z,94.40
2019-05-10T05:30:17.552Z,94.40
2019-05-10T05:32:47.645Z,94.40
2019-05-10T05:35:17.776Z,94.20
2019-05-10T05:37:47.585Z,94.10
2019-05-10T05:40:17.763Z,94.10
2019-05-10T05:42:47.578Z,94.10
2019-05-10T05:45:18.455Z,94.20
2019-05-10T05:47:48.632Z,94.30
2019-05-10T05:50:18.869Z,94.20
2019-05-10T05:52:48.771Z,94.20
2019-05-10T05:55:22.762Z,94.00
2019-05-10T05:57:50.415Z,94.10
2019-05-10T06:00:20.322Z,93.90
2019-05-10T06:02:50.238Z,93.80
2019-05-10T06:05:33.882Z,93.80
2019-05-10T06:07:52.524Z,93.70
2019-05-10T06:10:22.843Z,93.80
2019-05-10T06:12:53.086Z,93.70
2019-05-10T06:15:28.275Z,93.70
2019-05-10T06:17:57.191Z,93.80
2019-05-10T06:20:26.067Z,93.60
2019-05-10T06:23:06.229Z,93.50
2019-05-10T06:25:38.901Z,93.60
2019-05-10T06:27:59.225Z,93.60
2019-05-10T06:30:29.201Z,93.90
2019-05-10T06:33:00.858Z,93.80
2019-05-10T06:35:30.905Z,93.70
2019-05-10T06:38:00.734Z,93.60
2019-05-10T06:40:35.656Z,93.40
2019-05-10T06:43:06.762Z,93.20
2019-05-10T06:45:35.046Z,92.90
2019-05-10T06:48:04.891Z,92.70
2019-05-10T06:50:34.724Z,92.10
2019-05-10T06:53:07.805Z,91.60
2019-05-10T06:55:36.517Z,90.60
2019-05-10T06:58:06.370Z,88.70
2019-05-10T07:00:38.241Z,88.30
2019-05-10T07:03:07.790Z,78.00
2019-05-10T07:05:37.651Z,60.80
2019-05-10T07:08:16.446Z,47.70
2019-05-10T07:10:39.617Z,42.20
2019-05-10T07:13:09.883Z,41.70
2019-05-10T07:15:42.351Z,42.20
2019-05-10T07:18:16.619Z,43.30
2019-05-10T07:20:43.628Z,45.30
2019-05-10T07:23:13.463Z,45.10
2019-05-10T07:25:46.451Z,46.30
2019-05-10T07:28:15.773Z,46.00
2019-05-10T07:30:46.580Z,46.00
2019-05-10T07:33:16.427Z,46.40
2019-05-10T07:35:46.284Z,46.80
2019-05-10T07:38:16.118Z,47.90
2019-05-10T07:40:46.209Z,49.70
2019-05-10T07:43:24.685Z,48.50
2019-05-10T07:45:47.862Z,48.00
2019-05-10T07:48:17.751Z,49.10
2019-05-10T07:50:49.295Z,49.80
2019-05-10T07:53:22.775Z,50.90
2019-05-10T07:55:51.095Z,51.70
2019-05-10T07:58:20.919Z,52.50
2019-05-10T08:00:50.764Z,53.40
2019-05-10T08:03:23.717Z,53.90
2019-05-10T08:05:57.029Z,54.30
2019-05-10T08:08:24.837Z,54.50
2019-05-10T08:10:54.647Z,54.10
2019-05-10T08:13:25.290Z,53.30
2019-05-10T08:15:55.301Z,50.60
2019-05-10T08:18:25.605Z,45.40
2019-05-10T08:21:01.990Z,42.00
2019-05-10T08:23:28.179Z,41.70
2019-05-10T08:25:58.275Z,38.30
2019-05-10T08:28:36.109Z,36.80
2019-05-10T08:31:02.404Z,37.80
2019-05-10T08:33:33.001Z,38.00
2019-05-10T08:36:05.191Z,38.70
2019-05-10T08:38:34.610Z,41.00
2019-05-10T08:41:08.075Z,44.10
2019-05-10T08:43:38.881Z,46.40
2019-05-10T08:46:08.167Z,47.20
2019-05-10T08:48:42.901Z,49.30
2019-05-10T08:52:42.350Z,48.70
2019-05-10T08:55:13.958Z,49.70
2019-05-10T08:57:49.209Z,50.20
2019-05-10T09:00:15.442Z,50.30
2019-05-10T09:02:45.560Z,48.80
2019-05-10T09:05:15.517Z,48.20
2019-05-10T09:07:45.558Z,47.80
2019-05-10T09:10:15.907Z,47.70
2019-05-10T09:12:51.148Z,48.50
2019-05-10T09:15:17.666Z,48.90
2019-05-10T09:17:48.962Z,48.10
2019-05-10T09:20:22.063Z,48.00
2019-05-10T09:22:52.624Z,46.60
2019-05-10T09:25:29.172Z,45.70
2019-05-10T09:27:53.442Z,44.10
2019-05-10T09:30:35.653Z,42.30
2019-05-10T09:33:10.589Z,43.30
2019-05-10T09:35:39.014Z,42.60
2019-05-10T09:38:09.358Z,42.50
2019-05-10T09:40:42.568Z,43.30
2019-05-10T09:43:14.410Z,43.10
2019-05-10T09:45:42.554Z,44.60
2019-05-10T09:48:13.015Z,46.30
2019-05-10T09:50:47.144Z,47.50
2019-05-10T09:53:21.743Z,48.90
2019-05-10T09:55:55.316Z,50.00
2019-05-10T09:58:21.731Z,50.80
2019-05-10T10:00:49.553Z,51.70
2019-05-10T10:03:21.199Z,52.30
2019-05-10T10:05:55.280Z,52.00
2019-05-10T10:08:22.610Z,51.50
2019-05-10T10:10:52.559Z,51.10
2019-05-10T10:13:38.920Z,49.10
2019-05-10T10:15:54.160Z,47.30
2019-05-10T10:18:25.556Z,46.00
2019-05-10T10:20:56.036Z,45.20
2019-05-10T10:23:30.701Z,43.00
2019-05-10T10:25:58.046Z,39.80
2019-05-10T10:28:28.695Z,38.40
2019-05-10T10:31:05.018Z,39.50
2019-05-10T10:33:30.144Z,40.20
2019-05-10T10:36:07.726Z,41.90
2019-05-10T10:38:37.139Z,44.60
2019-05-10T10:41:04.958Z,48.60
2019-05-10T10:43:37.033Z,51.30
2019-05-10T10:46:11.885Z,53.10
2019-05-10T10:48:43.642Z,54.50
2019-05-10T10:51:11.274Z,56.10
2019-05-10T10:53:41.429Z,57.90
2019-05-10T10:56:11.319Z,59.30
2019-05-10T10:58:42.473Z,59.80
2019-05-10T11:01:21.479Z,61.30
2019-05-10T11:03:44.145Z,62.40
2019-05-10T11:06:15.445Z,62.30
2019-05-10T11:08:45.525Z,63.30
2019-05-10T11:11:15.623Z,64.50
2019-05-10T11:13:51.299Z,65.70
2019-05-10T11:16:17.030Z,67.10
2019-05-10T11:18:47.120Z,68.50
2019-05-10T11:21:16.926Z,69.50
2019-05-10T11:23:46.742Z,71.00
2019-05-10T11:26:16.811Z,72.70
2019-05-10T11:28:46.639Z,75.10
2019-05-10T11:31:16.779Z,77.50
2019-05-10T11:33:47.282Z,78.60
2019-05-10T11:36:18.188Z,79.40
2019-05-10T11:38:56.549Z,79.60
2019-05-10T11:41:23.731Z,77.80
2019-05-10T11:43:51.064Z,76.40
2019-05-10T11:46:21.292Z,74.30
2019-05-10T11:48:51.209Z,73.20
2019-05-10T11:51:21.344Z,72.40
2019-05-10T11:53:55.541Z,71.10
2019-05-10T11:56:27.352Z,70.40
2019-05-10T11:58:55.591Z,68.20
2019-05-10T12:01:25.546Z,65.60
2019-05-10T12:03:55.735Z,63.10
2019-05-10T12:06:25.822Z,59.50
2019-05-10T12:09:01.004Z,58.50
2019-05-10T12:11:33.322Z,56.50
2019-05-10T12:14:02.111Z,56.50
2019-05-10T12:16:33.361Z,53.00
2019-05-10T12:19:15.130Z,54.10
2019-05-10T12:21:35.229Z,53.30
2019-05-10T12:24:26.114Z,52.60
2019-05-10T12:29:13.533Z,53.00
2019-05-10T12:31:41.465Z,52.90
2019-05-10T12:34:14.480Z,53.40
2019-05-10T12:36:43.653Z,52.10
2019-05-10T12:39:14.929Z,50.80
2019-05-10T12:41:48.489Z,51.20
2019-05-10T12:44:16.637Z,49.60
2019-05-10T12:46:46.461Z,49.90
2019-05-10T12:49:16.325Z,51.20
2019-05-10T12:51:46.438Z,51.70
2019-05-10T12:54:18.460Z,50.50
2019-05-10T12:56:47.933Z,49.50
2019-05-10T12:59:17.798Z,49.20
2019-05-10T13:01:47.671Z,49.90
2019-05-10T13:04:17.512Z,49.50
2019-05-10T13:06:47.352Z,47.70
2019-05-10T13:09:17.206Z,48.40
2019-05-10T13:11:47.396Z,49.40
2019-05-10T13:14:17.518Z,50.20
2019-05-10T13:16:47.735Z,51.00
2019-05-10T13:19:20.064Z,57.40
2019-05-10T13:21:53.864Z,60.20
2019-05-10T13:24:22.104Z,66.50
2019-05-10T13:26:51.936Z,70.00
2019-05-10T13:29:21.758Z,72.40
2019-05-10T13:31:51.951Z,74.00
2019-05-10T13:34:24.212Z,74.20
2019-05-10T13:36:53.998Z,74.50
2019-05-10T13:39:25.534Z,74.50
2019-05-10T13:41:57.105Z,72.00
2019-05-10T13:44:28.759Z,67.70
2019-05-10T13:46:58.604Z,65.80
2019-05-10T13:49:28.480Z,64.50
2019-05-10T13:51:58.604Z,64.10
2019-05-10T13:54:31.247Z,63.50
2019-05-10T13:56:59.932Z,59.90
2019-05-10T13:59:29.775Z,59.40
2019-05-10T14:01:59.848Z,59.10
2019-05-10T14:04:33.882Z,58.70
2019-05-10T14:07:01.443Z,57.60
2019-05-10T14:09:31.287Z,57.30
2019-05-10T14:12:01.411Z,56.40
2019-05-10T14:14:31.554Z,57.10
2019-05-10T14:17:01.430Z,57.50
2019-05-10T14:19:35.611Z,57.80
2019-05-10T14:22:03.255Z,58.00
2019-05-10T14:24:34.999Z,57.10
2019-05-10T14:27:05.140Z,57.70
2019-05-10T14:29:36.918Z,55.60
2019-05-10T14:32:07.222Z,54.60
2019-05-10T14:34:43.955Z,54.10
2019-05-10T14:37:14.343Z,53.90
2019-05-10T14:39:42.769Z,54.00
2019-05-10T14:42:12.608Z,54.80
2019-05-10T14:44:42.960Z,54.60
2019-05-10T14:47:13.076Z,55.00
2019-05-10T14:49:46.947Z,54.80
2019-05-10T14:52:14.449Z,55.80
2019-05-10T14:54:49.590Z,57.70
2019-05-10T14:57:19.647Z,57.10
2019-05-10T14:59:49.492Z,57.90
2019-05-10T15:02:22.876Z,58.10
2019-05-10T15:04:51.178Z,57.70
2019-05-10T15:07:21.243Z,58.50
2019-05-10T15:09:54.387Z,59.00
2019-05-10T15:12:22.917Z,59.50
2019-05-10T15:14:53.281Z,60.70
2019-05-10T15:17:23.177Z,63.40
2019-05-10T15:19:58.001Z,67.10
2019-05-10T15:22:26.879Z,69.50
2019-05-10T15:25:00.712Z,73.50
2019-05-10T15:27:30.587Z,79.00
2019-05-10T15:30:05.479Z,82.00
2019-05-10T15:32:32.225Z,83.40
2019-05-10T15:35:06.941Z,84.00
2019-05-10T15:37:34.119Z,83.10
2019-05-10T15:40:07.897Z,84.10
2019-05-10T15:42:38.477Z,85.30
2019-05-10T15:45:12.111Z,86.20
2019-05-10T15:47:50.494Z,86.70
2019-05-10T15:50:13.851Z,87.60
2019-05-10T15:52:46.451Z,87.30
2019-05-10T16:19:13.064Z,88.00
2019-05-10T16:24:40.435Z,87.60
2019-05-10T16:27:10.334Z,87.80
2019-05-10T16:29:41.421Z,86.10
2019-05-10T16:32:11.396Z,85.60
2019-05-10T16:34:41.555Z,84.50
2019-05-10T16:37:11.448Z,83.30
2019-05-10T16:39:41.291Z,82.20
2019-05-10T16:42:11.599Z,82.30
2019-05-10T16:44:42.375Z,82.30
2019-05-10T16:47:12.312Z,81.70
2019-05-10T16:49:47.712Z,81.40
2019-05-10T16:52:19.446Z,81.00
2019-05-10T16:54:47.275Z,81.40
2019-05-10T16:57:17.087Z,80.90
2019-05-10T16:59:46.930Z,80.90
2019-05-10T17:02:17.037Z,80.80
2019-05-10T17:04:46.864Z,81.30
2019-05-10T17:07:18.866Z,81.30
2019-05-10T17:09:49.550Z,80.60
2019-05-10T17:12:22.012Z,80.20
2019-05-10T17:17:48.339Z,81.30
2019-05-10T17:20:18.303Z,82.00
2019-05-10T17:22:48.375Z,81.80
2019-05-10T17:25:18.258Z,81.80
2019-05-10T17:27:50.470Z,81.80
2019-05-10T17:30:22.341Z,82.00
2019-05-10T17:32:52.680Z,81.00
2019-05-10T17:35:22.914Z,81.10
2019-05-10T17:37:53.140Z,81.90
2019-05-10T17:40:24.383Z,81.70
2019-05-10T17:42:54.292Z,81.90
2019-05-10T17:45:24.515Z,82.30
2019-05-10T17:47:54.345Z,82.30
2019-05-10T17:50:24.222Z,83.20
2019-05-10T17:52:54.037Z,84.80
2019-05-10T17:55:25.554Z,85.00
2019-05-10T17:57:56.572Z,85.70
2019-05-10T18:00:27.507Z,86.50
2019-05-10T18:02:57.347Z,87.10
2019-05-10T18:05:27.519Z,87.80
2019-05-10T18:07:57.661Z,88.50
2019-05-10T18:10:27.461Z,88.70
2019-05-10T18:13:02.956Z,89.40
2019-05-10T18:15:32.862Z,89.40
2019-05-10T18:18:02.644Z,89.50
2019-05-10T18:20:40.812Z,89.90
2019-05-10T18:23:05.419Z,90.00
2019-05-10T18:25:35.548Z,90.10
2019-05-10T18:28:05.442Z,90.00
2019-05-10T18:30:35.249Z,90.00
2019-05-10T18:33:06.805Z,90.10
2019-05-10T18:35:36.844Z,90.30
2019-05-10T18:38:06.990Z,90.40
2019-05-10T18:40:38.408Z,90.40
2019-05-10T18:43:08.284Z,90.40
2019-05-10T18:45:38.472Z,90.40
2019-05-10T18:48:08.347Z,90.60
2019-05-10T18:50:44.515Z,90.70
2019-05-10T18:53:10.874Z,91.10
2019-05-10T18:55:40.989Z,90.80
2019-05-10T18:58:11.100Z,91.00
2019-05-10T19:00:40.913Z,91.20
2019-05-10T19:03:11.040Z,91.60
2019-05-10T19:05:41.151Z,91.70
2019-05-10T19:08:11.192Z,91.80
2019-05-10T19:10:41.300Z,92.00
2019-05-10T19:13:11.423Z,92.30
2019-05-10T19:15:46.117Z,92.40
2019-05-10T19:18:17.757Z,92.50
2019-05-10T19:20:48.766Z,92.60
2019-05-10T19:23:19.485Z,92.70
2019-05-10T19:25:51.545Z,92.90
2019-05-10T19:28:20.811Z,93.00
2019-05-10T19:30:52.704Z,93.20
2019-05-10T19:33:22.693Z,93.10
2019-05-10T19:35:52.833Z,93.10
2019-05-10T19:38:22.635Z,93.40
2019-05-10T19:40:52.782Z,93.40
2019-05-10T19:43:23.995Z,93.60
2019-05-10T19:45:57.414Z,93.80
2019-05-10T19:48:29.205Z,94.00
2019-05-10T19:50:57.464Z,93.90
2019-05-10T19:53:27.586Z,93.90
2019-05-10T19:55:59.258Z,94.00
2019-05-10T19:58:32.420Z,94.00
2019-05-10T20:01:00.764Z,94.00
2019-05-10T20:03:30.907Z,94.00
2019-05-10T20:06:01.132Z,94.10
2019-05-10T20:08:31.251Z,94.20
2019-05-10T20:11:01.401Z,94.30
2019-05-10T20:13:31.305Z,94.40
2019-05-10T20:16:01.599Z,94.50
2019-05-10T20:18:31.574Z,94.50
2019-05-10T20:21:01.492Z,94.50
2019-05-10T20:23:31.666Z,94.50
2019-05-10T20:26:01.485Z,94.50
2019-05-10T20:28:31.605Z,94.40
2019-05-10T20:31:01.436Z,94.40
2019-05-10T20:33:31.991Z,94.50
2019-05-10T20:36:02.069Z,94.60
2019-05-10T20:38:32.304Z,94.60
2019-05-10T20:41:02.109Z,94.50
2019-05-10T20:43:32.312Z,94.50
2019-05-10T20:46:02.432Z,94.50
2019-05-10T20:48:32.587Z,94.50
2019-05-10T20:51:02.391Z,94.50
2019-05-10T20:53:32.491Z,94.60
2019-05-10T20:56:02.341Z,94.60
2019-05-10T20:58:32.139Z,94.60
2019-05-10T21:01:01.990Z,94.90
2019-05-10T21:03:32.463Z,94.80
2019-05-10T21:06:02.280Z,94.80
2019-05-10T21:08:32.097Z,94.90
2019-05-10T21:11:01.985Z,95.00
2019-05-10T21:13:32.124Z,95.00
2019-05-10T21:16:02.448Z,95.10
2019-05-10T21:18:32.246Z,95.10
2019-05-10T21:21:02.064Z,95.10
2019-05-10T21:23:32.202Z,95.10
2019-05-10T21:26:02.008Z,95.00
2019-05-10T21:28:31.913Z,95.10
2019-05-10T21:31:02.145Z,95.20
2019-05-10T21:33:32.278Z,95.30
2019-05-10T21:36:02.385Z,95.40
2019-05-10T21:38:33.588Z,95.30
2019-05-10T21:41:03.957Z,95.30
2019-05-10T21:43:34.086Z,95.20
2019-05-10T21:46:04.073Z,95.30
2019-05-10T21:48:33.886Z,95.40
2019-05-10T21:51:03.762Z,95.30
2019-05-10T21:53:33.641Z,95.40
2019-05-10T21:56:04.513Z,95.50
2019-05-10T21:58:34.326Z,95.50
2019-05-10T22:01:04.377Z,95.60
2019-05-10T22:03:34.727Z,95.60
2019-05-10T22:06:04.955Z,95.60
2019-05-10T22:08:48.359Z,95.50
2019-05-10T22:11:06.654Z,96.00
2019-05-10T22:13:36.467Z,95.60
2019-05-10T22:16:06.551Z,96.00
2019-05-10T22:18:38.417Z,96.10
2019-05-10T22:21:08.253Z,95.70
2019-05-10T22:23:38.144Z,95.60
2019-05-10T22:26:07.950Z,95.70
2019-05-10T22:28:38.081Z,95.60
2019-05-10T22:31:08.198Z,95.60
2019-05-10T22:33:37.999Z,95.60
2019-05-10T22:36:07.831Z,95.60
2019-05-10T22:38:37.945Z,95.60
2019-05-10T22:41:07.782Z,95.60
2019-05-10T22:43:37.878Z,95.60
2019-05-10T22:46:07.988Z,95.60
2019-05-10T22:48:38.112Z,95.60
2019-05-10T22:51:07.928Z,95.60
2019-05-10T22:53:38.047Z,95.60
2019-05-10T22:56:08.168Z,95.60
2019-05-10T22:58:38.391Z,95.70
2019-05-10T23:01:08.198Z,95.80
2019-05-10T23:03:38.042Z,95.80
2019-05-10T23:06:08.135Z,95.90
2019-05-10T23:08:38.014Z,95.90
2019-05-10T23:11:08.171Z,95.90
2019-05-10T23:13:37.992Z,96.00
2019-05-10T23:16:07.797Z,96.00
2019-05-10T23:18:37.915Z,95.90
2019-05-10T23:21:07.731Z,96.00
2019-05-10T23:23:37.542Z,96.00
2019-05-10T23:26:08.494Z,96.00
2019-05-10T23:28:39.638Z,96.00
2019-05-10T23:31:09.747Z,96.00
2019-05-10T23:33:39.867Z,95.90
2019-05-10T23:36:09.980Z,96.00
2019-05-10T23:38:39.814Z,96.00
2019-05-10T23:41:09.924Z,96.00
2019-05-10T23:43:40.034Z,95.90
2019-05-10T23:46:09.846Z,95.90
2019-05-10T23:48:39.671Z,95.90
2019-05-10T23:51:09.475Z,95.90
2019-05-10T23:53:39.288Z,95.90
2019-05-10T23:56:09.417Z,95.80
2019-05-10T23:58:39.535Z,95.80
